sensor_id;sensor_type;location;lat;lon;timestamp;temperature;humidity
2124;DHT22;1068;52.460;13.528;2022-09-01T00:01:46;16.30;99.90
2124;DHT22;1068;52.460;13.528;2022-09-01T00:04:16;16.30;99.90
2124;DHT22;1068;52.460;13.528;2022-09-01T00:06:43;16.30;99.90
2124;DHT22;1068;52.460;13.528;2022-09-01T00:09:12;16.20;99.90
2124;DHT22;1068;52.460;13.528;2022-09-01T00:11:41;16.30;99.90
2124;DHT22;1068;52.460;13.528;2022-09-01T00:14:08;16.20;99.90
2124;DHT22;1068;52.460;13.528;2022-09-01T00:16:36;16.20;99.90
2124;DHT22;1068;52.460;13.528;2022-09-01T00:19:05;16.10;99.90
2124;DHT22;1068;52.460;13.528;2022-09-01T00:21:36;16.10;99.90
2124;DHT22;1068;52.460;13.528;2022-09-01T00:24:03;16.10;99.90
2124;DHT22;1068;52.460;13.528;2022-09-01T00:26:30;16.10;99.90
2124;DHT22;1068;52.460;13.528;2022-09-01T00:28:56;16.10;99.90
2124;DHT22;1068;52.460;13.528;2022-09-01T00:31:24;16.00;99.90
2124;DHT22;1068;52.460;13.528;2022-09-01T00:33:51;16.00;99.90
2124;DHT22;1068;52.460;13.528;2022-09-01T00:36:19;16.00;99.90
2124;DHT22;1068;52.460;13.528;2022-09-01T00:38:47;16.10;99.90
2124;DHT22;1068;52.460;13.528;2022-09-01T00:41:16;16.10;99.90
2124;DHT22;1068;52.460;13.528;2022-09-01T00:43:45;16.10;99.90
2124;DHT22;1068;52.460;13.528;2022-09-01T00:46:14;16.10;99.90
2124;DHT22;1068;52.460;13.528;2022-09-01T00:48:42;16.20;99.90
2124;DHT22;1068;52.460;13.528;2022-09-01T00:51:09;16.20;99.90
2124;DHT22;1068;52.460;13.528;2022-09-01T00:53:40;16.20;99.90
2124;DHT22;1068;52.460;13.528;2022-09-01T00:56:07;16.30;99.90
2124;DHT22;1068;52.460;13.528;2022-09-01T00:58:35;16.20;99.90
2124;DHT22;1068;52.460;13.528;2022-09-01T01:01:03;16.30;99.90
2124;DHT22;1068;52.460;13.528;2022-09-01T01:03:30;16.30;99.90
2124;DHT22;1068;52.460;13.528;2022-09-01T01:06:01;16.30;99.90
2124;DHT22;1068;52.460;13.528;2022-09-01T01:08:32;16.20;99.90
2124;DHT22;1068;52.460;13.528;2022-09-01T01:11:01;16.10;99.90
2124;DHT22;1068;52.460;13.528;2022-09-01T01:13:29;16.00;99.90
2124;DHT22;1068;52.460;13.528;2022-09-01T01:15:57;16.00;99.90
2124;DHT22;1068;52.460;13.528;2022-09-01T01:18:24;16.00;99.90
2124;DHT22;1068;52.460;13.528;2022-09-01T01:20:58;16.00;99.90
2124;DHT22;1068;52.460;13.528;2022-09-01T01:23:48;15.90;99.90
2124;DHT22;1068;52.460;13.528;2022-09-01T01:26:18;15.90;99.90
2124;DHT22;1068;52.460;13.528;2022-09-01T01:28:44;15.90;99.90
2124;DHT22;1068;52.460;13.528;2022-09-01T01:31:13;15.80;99.90
2124;DHT22;1068;52.460;13.528;2022-09-01T01:33:43;15.80;99.90
2124;DHT22;1068;52.460;13.528;2022-09-01T01:36:12;15.80;99.90
2124;DHT22;1068;52.460;13.528;2022-09-01T01:38:41;15.70;99.90
2124;DHT22;1068;52.460;13.528;2022-09-01T01:41:09;15.70;99.90
2124;DHT22;1068;52.460;13.528;2022-09-01T01:43:37;15.60;99.90
2124;DHT22;1068;52.460;13.528;2022-09-01T01:46:06;15.70;99.90
2124;DHT22;1068;52.460;13.528;2022-09-01T01:48:35;15.70;99.90
2124;DHT22;1068;52.460;13.528;2022-09-01T01:51:04;15.80;99.90
2124;DHT22;1068;52.460;13.528;2022-09-01T01:53:32;15.70;99.90
2124;DHT22;1068;52.460;13.528;2022-09-01T01:55:59;15.60;99.90
2124;DHT22;1068;52.460;13.528;2022-09-01T01:58:27;15.60;99.90
2124;DHT22;1068;52.460;13.528;2022-09-01T02:00:56;15.50;99.90
2124;DHT22;1068;52.460;13.528;2022-09-01T02:03:25;15.50;99.90
2124;DHT22;1068;52.460;13.528;2022-09-01T02:05:54;15.50;99.90
2124;DHT22;1068;52.460;13.528;2022-09-01T02:08:22;15.40;99.90
2124;DHT22;1068;52.460;13.528;2022-09-01T02:10:52;15.50;99.90
2124;DHT22;1068;52.460;13.528;2022-09-01T02:13:20;15.50;99.90
2124;DHT22;1068;52.460;13.528;2022-09-01T02:15:58;15.50;99.90
2124;DHT22;1068;52.460;13.528;2022-09-01T02:18:28;15.40;99.90
2124;DHT22;1068;52.460;13.528;2022-09-01T02:20:58;15.50;99.90
2124;DHT22;1068;52.460;13.528;2022-09-01T02:23:26;15.40;99.90
2124;DHT22;1068;52.460;13.528;2022-09-01T02:25:55;15.30;99.90
2124;DHT22;1068;52.460;13.528;2022-09-01T02:28:22;15.30;99.90
2124;DHT22;1068;52.460;13.528;2022-09-01T02:30:52;15.30;99.90
2124;DHT22;1068;52.460;13.528;2022-09-01T02:33:22;15.30;99.90
2124;DHT22;1068;52.460;13.528;2022-09-01T02:35:51;15.30;99.90
2124;DHT22;1068;52.460;13.528;2022-09-01T02:38:18;15.30;99.90
2124;DHT22;1068;52.460;13.528;2022-09-01T02:40:48;15.30;99.90
2124;DHT22;1068;52.460;13.528;2022-09-01T02:43:15;15.20;99.90
2124;DHT22;1068;52.460;13.528;2022-09-01T02:45:44;15.20;99.90
2124;DHT22;1068;52.460;13.528;2022-09-01T02:48:11;15.20;99.90
2124;DHT22;1068;52.460;13.528;2022-09-01T02:50:40;15.10;99.90
2124;DHT22;1068;52.460;13.528;2022-09-01T02:53:08;15.10;99.90
2124;DHT22;1068;52.460;13.528;2022-09-01T02:55:38;15.10;99.90
2124;DHT22;1068;52.460;13.528;2022-09-01T02:58:05;15.10;99.90
2124;DHT22;1068;52.460;13.528;2022-09-01T03:00:32;15.00;99.90
2124;DHT22;1068;52.460;13.528;2022-09-01T03:03:05;15.00;99.90
2124;DHT22;1068;52.460;13.528;2022-09-01T03:05:32;15.00;99.90
2124;DHT22;1068;52.460;13.528;2022-09-01T03:08:04;15.00;99.90
2124;DHT22;1068;52.460;13.528;2022-09-01T03:10:33;14.90;99.90
2124;DHT22;1068;52.460;13.528;2022-09-01T03:13:02;15.00;99.90
2124;DHT22;1068;52.460;13.528;2022-09-01T03:15:31;15.10;99.90
2124;DHT22;1068;52.460;13.528;2022-09-01T03:17:59;15.10;99.90
2124;DHT22;1068;52.460;13.528;2022-09-01T03:20:27;15.30;99.90
2124;DHT22;1068;52.460;13.528;2022-09-01T03:22:55;15.30;99.90
2124;DHT22;1068;52.460;13.528;2022-09-01T03:25:24;15.30;99.90
2124;DHT22;1068;52.460;13.528;2022-09-01T03:27:54;15.20;99.90
2124;DHT22;1068;52.460;13.528;2022-09-01T03:30:24;15.20;99.90
2124;DHT22;1068;52.460;13.528;2022-09-01T03:32:51;15.20;99.90
2124;DHT22;1068;52.460;13.528;2022-09-01T03:35:17;15.10;99.90
2124;DHT22;1068;52.460;13.528;2022-09-01T03:37:44;14.90;99.90
2124;DHT22;1068;52.460;13.528;2022-09-01T03:40:11;14.90;99.90
2124;DHT22;1068;52.460;13.528;2022-09-01T03:42:39;14.80;99.90
2124;DHT22;1068;52.460;13.528;2022-09-01T03:45:07;14.70;99.90
2124;DHT22;1068;52.460;13.528;2022-09-01T03:47:37;14.60;99.90
2124;DHT22;1068;52.460;13.528;2022-09-01T03:50:06;14.50;99.90
2124;DHT22;1068;52.460;13.528;2022-09-01T03:52:33;14.50;99.90
2124;DHT22;1068;52.460;13.528;2022-09-01T03:54:59;14.50;99.90
2124;DHT22;1068;52.460;13.528;2022-09-01T03:57:26;14.40;99.90
2124;DHT22;1068;52.460;13.528;2022-09-01T03:59:55;14.20;99.90
2124;DHT22;1068;52.460;13.528;2022-09-01T04:02:24;14.10;99.90
2124;DHT22;1068;52.460;13.528;2022-09-01T04:04:54;14.20;99.90
2124;DHT22;1068;52.460;13.528;2022-09-01T04:07:23;14.10;99.90
2124;DHT22;1068;52.460;13.528;2022-09-01T04:09:50;14.20;99.90
2124;DHT22;1068;52.460;13.528;2022-09-01T04:12:17;14.10;99.90
2124;DHT22;1068;52.460;13.528;2022-09-01T04:14:44;14.20;99.90
2124;DHT22;1068;52.460;13.528;2022-09-01T04:17:13;14.10;99.90
2124;DHT22;1068;52.460;13.528;2022-09-01T04:19:57;14.10;99.90
2124;DHT22;1068;52.460;13.528;2022-09-01T04:22:27;14.20;99.90
2124;DHT22;1068;52.460;13.528;2022-09-01T04:24:56;14.00;99.90
2124;DHT22;1068;52.460;13.528;2022-09-01T04:27:23;14.00;99.90
2124;DHT22;1068;52.460;13.528;2022-09-01T04:29:51;14.00;99.90
2124;DHT22;1068;52.460;13.528;2022-09-01T04:32:19;14.00;99.90
2124;DHT22;1068;52.460;13.528;2022-09-01T04:34:46;14.00;99.90
2124;DHT22;1068;52.460;13.528;2022-09-01T04:37:15;14.00;99.90
2124;DHT22;1068;52.460;13.528;2022-09-01T04:39:47;14.10;99.90
2124;DHT22;1068;52.460;13.528;2022-09-01T04:42:16;13.90;99.90
2124;DHT22;1068;52.460;13.528;2022-09-01T04:44:47;13.90;99.90
2124;DHT22;1068;52.460;13.528;2022-09-01T04:47:14;14.00;99.90
2124;DHT22;1068;52.460;13.528;2022-09-01T04:49:42;13.90;99.90
2124;DHT22;1068;52.460;13.528;2022-09-01T04:52:10;13.90;99.90
2124;DHT22;1068;52.460;13.528;2022-09-01T04:54:37;13.90;99.90
2124;DHT22;1068;52.460;13.528;2022-09-01T04:57:05;13.80;99.90
2124;DHT22;1068;52.460;13.528;2022-09-01T04:59:32;13.70;99.90
2124;DHT22;1068;52.460;13.528;2022-09-01T05:01:58;13.70;99.90
2124;DHT22;1068;52.460;13.528;2022-09-01T05:04:28;13.70;99.90
2124;DHT22;1068;52.460;13.528;2022-09-01T05:06:59;13.70;99.90
2124;DHT22;1068;52.460;13.528;2022-09-01T05:09:27;13.70;99.90
2124;DHT22;1068;52.460;13.528;2022-09-01T05:11:55;13.70;99.90
2124;DHT22;1068;52.460;13.528;2022-09-01T05:14:22;13.70;99.90
2124;DHT22;1068;52.460;13.528;2022-09-01T05:16:51;13.60;99.90
2124;DHT22;1068;52.460;13.528;2022-09-01T05:19:21;13.70;99.90
2124;DHT22;1068;52.460;13.528;2022-09-01T05:21:49;13.70;99.90
2124;DHT22;1068;52.460;13.528;2022-09-01T05:24:19;13.60;99.90
2124;DHT22;1068;52.460;13.528;2022-09-01T05:26:46;13.50;99.90
2124;DHT22;1068;52.460;13.528;2022-09-01T05:29:15;13.50;99.90
2124;DHT22;1068;52.460;13.528;2022-09-01T05:31:44;13.50;99.90
2124;DHT22;1068;52.460;13.528;2022-09-01T05:34:11;13.60;99.90
2124;DHT22;1068;52.460;13.528;2022-09-01T05:36:43;13.60;99.90
2124;DHT22;1068;52.460;13.528;2022-09-01T05:39:10;13.60;99.90
2124;DHT22;1068;52.460;13.528;2022-09-01T05:41:39;13.70;99.90
2124;DHT22;1068;52.460;13.528;2022-09-01T05:44:06;13.70;99.90
2124;DHT22;1068;52.460;13.528;2022-09-01T05:46:34;13.80;99.90
2124;DHT22;1068;52.460;13.528;2022-09-01T05:49:03;14.00;99.90
2124;DHT22;1068;52.460;13.528;2022-09-01T05:51:33;14.20;99.90
2124;DHT22;1068;52.460;13.528;2022-09-01T05:53:59;14.30;99.90
2124;DHT22;1068;52.460;13.528;2022-09-01T05:56:27;14.40;99.90
2124;DHT22;1068;52.460;13.528;2022-09-01T05:58:56;14.60;99.90
2124;DHT22;1068;52.460;13.528;2022-09-01T06:01:25;14.70;99.90
2124;DHT22;1068;52.460;13.528;2022-09-01T06:03:54;14.80;99.90
2124;DHT22;1068;52.460;13.528;2022-09-01T06:06:21;15.00;99.90
2124;DHT22;1068;52.460;13.528;2022-09-01T06:08:48;14.90;99.90
2124;DHT22;1068;52.460;13.528;2022-09-01T06:11:15;14.90;99.90
2124;DHT22;1068;52.460;13.528;2022-09-01T06:13:42;15.00;99.90
2124;DHT22;1068;52.460;13.528;2022-09-01T06:16:10;14.90;99.90
2124;DHT22;1068;52.460;13.528;2022-09-01T06:18:38;15.00;99.90
2124;DHT22;1068;52.460;13.528;2022-09-01T06:21:08;15.10;99.90
2124;DHT22;1068;52.460;13.528;2022-09-01T06:23:39;15.10;99.90
2124;DHT22;1068;52.460;13.528;2022-09-01T06:26:05;15.10;99.90
2124;DHT22;1068;52.460;13.528;2022-09-01T06:28:32;15.30;99.90
2124;DHT22;1068;52.460;13.528;2022-09-01T06:30:59;15.30;99.90
2124;DHT22;1068;52.460;13.528;2022-09-01T06:33:32;15.40;99.90
2124;DHT22;1068;52.460;13.528;2022-09-01T06:36:00;15.50;99.90
2124;DHT22;1068;52.460;13.528;2022-09-01T06:38:28;15.70;99.90
2124;DHT22;1068;52.460;13.528;2022-09-01T06:40:59;15.90;99.90
2124;DHT22;1068;52.460;13.528;2022-09-01T06:43:26;16.10;99.90
2124;DHT22;1068;52.460;13.528;2022-09-01T06:45:55;16.00;99.90
2124;DHT22;1068;52.460;13.528;2022-09-01T06:48:21;15.90;99.90
2124;DHT22;1068;52.460;13.528;2022-09-01T06:50:49;16.10;99.90
2124;DHT22;1068;52.460;13.528;2022-09-01T06:53:16;16.10;99.90
2124;DHT22;1068;52.460;13.528;2022-09-01T06:55:47;16.20;99.90
2124;DHT22;1068;52.460;13.528;2022-09-01T06:58:14;16.10;99.90
2124;DHT22;1068;52.460;13.528;2022-09-01T07:00:41;16.20;99.90
2124;DHT22;1068;52.460;13.528;2022-09-01T07:03:09;16.40;99.90
2124;DHT22;1068;52.460;13.528;2022-09-01T07:05:38;16.40;99.90
2124;DHT22;1068;52.460;13.528;2022-09-01T07:08:07;16.40;99.90
2124;DHT22;1068;52.460;13.528;2022-09-01T07:10:40;16.50;99.90
2124;DHT22;1068;52.460;13.528;2022-09-01T07:13:10;16.60;99.90
2124;DHT22;1068;52.460;13.528;2022-09-01T07:15:38;16.70;99.90
2124;DHT22;1068;52.460;13.528;2022-09-01T07:18:05;16.90;99.90
2124;DHT22;1068;52.460;13.528;2022-09-01T07:20:32;17.00;99.90
2124;DHT22;1068;52.460;13.528;2022-09-01T07:23:05;17.00;99.90
2124;DHT22;1068;52.460;13.528;2022-09-01T07:25:32;17.20;99.90
2124;DHT22;1068;52.460;13.528;2022-09-01T07:27:59;17.00;99.90
2124;DHT22;1068;52.460;13.528;2022-09-01T07:30:25;17.00;99.90
2124;DHT22;1068;52.460;13.528;2022-09-01T07:32:52;17.10;99.90
2124;DHT22;1068;52.460;13.528;2022-09-01T07:35:21;17.20;99.90
2124;DHT22;1068;52.460;13.528;2022-09-01T07:37:48;17.40;99.90
2124;DHT22;1068;52.460;13.528;2022-09-01T07:40:19;17.50;99.90
2124;DHT22;1068;52.460;13.528;2022-09-01T07:42:47;17.50;99.90
2124;DHT22;1068;52.460;13.528;2022-09-01T07:45:16;17.50;99.90
2124;DHT22;1068;52.460;13.528;2022-09-01T07:47:42;17.70;99.90
2124;DHT22;1068;52.460;13.528;2022-09-01T07:50:10;17.80;99.90
2124;DHT22;1068;52.460;13.528;2022-09-01T07:52:39;17.80;99.90
2124;DHT22;1068;52.460;13.528;2022-09-01T07:55:08;17.80;99.90
2124;DHT22;1068;52.460;13.528;2022-09-01T07:57:37;17.90;99.90
2124;DHT22;1068;52.460;13.528;2022-09-01T08:00:06;17.70;99.90
2124;DHT22;1068;52.460;13.528;2022-09-01T08:02:33;17.80;99.90
2124;DHT22;1068;52.460;13.528;2022-09-01T08:05:00;17.70;99.90
2124;DHT22;1068;52.460;13.528;2022-09-01T08:07:27;17.60;99.90
2124;DHT22;1068;52.460;13.528;2022-09-01T08:09:54;17.80;99.90
2124;DHT22;1068;52.460;13.528;2022-09-01T08:12:20;18.10;99.90
2124;DHT22;1068;52.460;13.528;2022-09-01T08:14:48;18.10;99.90
2124;DHT22;1068;52.460;13.528;2022-09-01T08:17:17;18.10;99.90
2124;DHT22;1068;52.460;13.528;2022-09-01T08:19:44;18.20;99.90
2124;DHT22;1068;52.460;13.528;2022-09-01T08:22:11;18.40;99.90
2124;DHT22;1068;52.460;13.528;2022-09-01T08:24:38;18.60;99.90
2124;DHT22;1068;52.460;13.528;2022-09-01T08:27:04;18.50;99.90
2124;DHT22;1068;52.460;13.528;2022-09-01T08:29:31;18.40;99.90
2124;DHT22;1068;52.460;13.528;2022-09-01T08:31:59;18.60;99.90
2124;DHT22;1068;52.460;13.528;2022-09-01T08:34:26;18.60;99.90
2124;DHT22;1068;52.460;13.528;2022-09-01T08:36:53;18.70;99.90
2124;DHT22;1068;52.460;13.528;2022-09-01T08:39:19;18.70;99.90
2124;DHT22;1068;52.460;13.528;2022-09-01T08:41:51;18.90;99.90
2124;DHT22;1068;52.460;13.528;2022-09-01T08:44:30;18.70;99.90
2124;DHT22;1068;52.460;13.528;2022-09-01T08:47:03;18.80;99.90
2124;DHT22;1068;52.460;13.528;2022-09-01T08:49:32;18.70;99.90
2124;DHT22;1068;52.460;13.528;2022-09-01T08:52:07;18.80;99.90
2124;DHT22;1068;52.460;13.528;2022-09-01T08:54:41;18.80;99.90
2124;DHT22;1068;52.460;13.528;2022-09-01T08:57:13;18.80;99.90
2124;DHT22;1068;52.460;13.528;2022-09-01T08:59:41;18.90;99.90
2124;DHT22;1068;52.460;13.528;2022-09-01T09:02:25;18.90;99.90
2124;DHT22;1068;52.460;13.528;2022-09-01T09:04:58;19.00;99.90
2124;DHT22;1068;52.460;13.528;2022-09-01T09:07:41;19.10;99.90
2124;DHT22;1068;52.460;13.528;2022-09-01T09:10:13;19.20;99.90
2124;DHT22;1068;52.460;13.528;2022-09-01T09:12:55;19.20;99.90
2124;DHT22;1068;52.460;13.528;2022-09-01T09:15:28;19.40;99.90
2124;DHT22;1068;52.460;13.528;2022-09-01T09:18:15;19.60;99.90
2124;DHT22;1068;52.460;13.528;2022-09-01T09:20:42;19.70;99.90
2124;DHT22;1068;52.460;13.528;2022-09-01T09:23:19;19.80;99.90
2124;DHT22;1068;52.460;13.528;2022-09-01T09:25:46;19.80;99.90
2124;DHT22;1068;52.460;13.528;2022-09-01T09:28:13;19.70;99.90
2124;DHT22;1068;52.460;13.528;2022-09-01T09:30:39;19.80;99.90
2124;DHT22;1068;52.460;13.528;2022-09-01T09:33:08;19.60;99.90
2124;DHT22;1068;52.460;13.528;2022-09-01T09:35:38;19.70;99.90
2124;DHT22;1068;52.460;13.528;2022-09-01T09:38:18;19.70;99.90
2124;DHT22;1068;52.460;13.528;2022-09-01T09:41:01;19.90;99.90
2124;DHT22;1068;52.460;13.528;2022-09-01T09:43:31;20.00;99.90
2124;DHT22;1068;52.460;13.528;2022-09-01T09:46:20;20.00;99.90
2124;DHT22;1068;52.460;13.528;2022-09-01T09:48:48;20.30;99.90
2124;DHT22;1068;52.460;13.528;2022-09-01T09:51:30;20.20;99.90
2124;DHT22;1068;52.460;13.528;2022-09-01T09:54:13;20.00;99.90
2124;DHT22;1068;52.460;13.528;2022-09-01T09:56:41;20.00;99.90
2124;DHT22;1068;52.460;13.528;2022-09-01T09:59:26;20.20;99.90
2124;DHT22;1068;52.460;13.528;2022-09-01T10:01:56;20.30;99.90
2124;DHT22;1068;52.460;13.528;2022-09-01T10:04:35;20.20;99.90
2124;DHT22;1068;52.460;13.528;2022-09-01T10:07:23;20.20;99.90
2124;DHT22;1068;52.460;13.528;2022-09-01T10:09:51;20.20;99.90
2124;DHT22;1068;52.460;13.528;2022-09-01T10:12:18;20.20;99.90
2124;DHT22;1068;52.460;13.528;2022-09-01T10:14:49;20.20;99.90
2124;DHT22;1068;52.460;13.528;2022-09-01T10:17:20;20.10;99.90
2124;DHT22;1068;52.460;13.528;2022-09-01T10:19:53;20.20;99.90
2124;DHT22;1068;52.460;13.528;2022-09-01T10:22:22;20.10;99.90
2124;DHT22;1068;52.460;13.528;2022-09-01T10:24:49;20.10;99.90
2124;DHT22;1068;52.460;13.528;2022-09-01T10:27:19;20.20;99.90
2124;DHT22;1068;52.460;13.528;2022-09-01T10:29:51;20.40;99.90
2124;DHT22;1068;52.460;13.528;2022-09-01T10:32:21;20.50;99.90
2124;DHT22;1068;52.460;13.528;2022-09-01T10:34:50;20.80;99.90
2124;DHT22;1068;52.460;13.528;2022-09-01T10:37:18;20.70;99.90
2124;DHT22;1068;52.460;13.528;2022-09-01T10:40:11;20.40;99.90
2124;DHT22;1068;52.460;13.528;2022-09-01T10:42:39;20.70;99.90
2124;DHT22;1068;52.460;13.528;2022-09-01T10:45:16;20.40;99.90
2124;DHT22;1068;52.460;13.528;2022-09-01T10:47:44;20.70;99.90
2124;DHT22;1068;52.460;13.528;2022-09-01T10:50:26;20.70;99.90
2124;DHT22;1068;52.460;13.528;2022-09-01T10:52:59;20.50;99.90
2124;DHT22;1068;52.460;13.528;2022-09-01T10:55:33;20.50;99.90
2124;DHT22;1068;52.460;13.528;2022-09-01T10:58:12;20.40;99.90
2124;DHT22;1068;52.460;13.528;2022-09-01T11:00:49;20.50;99.90
2124;DHT22;1068;52.460;13.528;2022-09-01T11:06:54;20.10;99.90
2124;DHT22;1068;52.460;13.528;2022-09-01T11:09:24;20.40;99.90
2124;DHT22;1068;52.460;13.528;2022-09-01T11:12:05;20.70;99.90
2124;DHT22;1068;52.460;13.528;2022-09-01T11:14:46;20.60;99.90
2124;DHT22;1068;52.460;13.528;2022-09-01T11:17:17;20.60;99.90
2124;DHT22;1068;52.460;13.528;2022-09-01T11:19:46;20.70;99.90
2124;DHT22;1068;52.460;13.528;2022-09-01T11:22:26;20.70;99.90
2124;DHT22;1068;52.460;13.528;2022-09-01T11:28:10;20.90;99.90
2124;DHT22;1068;52.460;13.528;2022-09-01T11:30:59;20.90;99.90
2124;DHT22;1068;52.460;13.528;2022-09-01T11:36:19;20.90;99.90
2124;DHT22;1068;52.460;13.528;2022-09-01T11:38:50;21.00;99.90
2124;DHT22;1068;52.460;13.528;2022-09-01T11:41:21;20.90;99.90
2124;DHT22;1068;52.460;13.528;2022-09-01T11:43:50;20.90;99.90
2124;DHT22;1068;52.460;13.528;2022-09-01T11:46:21;20.80;99.90
2124;DHT22;1068;52.460;13.528;2022-09-01T11:48:48;20.80;99.90
2124;DHT22;1068;52.460;13.528;2022-09-01T11:51:15;20.80;99.90
2124;DHT22;1068;52.460;13.528;2022-09-01T11:53:42;20.90;99.90
2124;DHT22;1068;52.460;13.528;2022-09-01T11:56:16;21.10;99.90
2124;DHT22;1068;52.460;13.528;2022-09-01T11:58:43;21.10;99.90
2124;DHT22;1068;52.460;13.528;2022-09-01T12:01:15;21.50;99.90
2124;DHT22;1068;52.460;13.528;2022-09-01T12:03:45;21.60;99.90
2124;DHT22;1068;52.460;13.528;2022-09-01T12:06:19;21.70;99.90
2124;DHT22;1068;52.460;13.528;2022-09-01T12:08:53;21.70;99.90
2124;DHT22;1068;52.460;13.528;2022-09-01T12:11:22;21.60;99.90
2124;DHT22;1068;52.460;13.528;2022-09-01T12:13:56;21.40;99.90
2124;DHT22;1068;52.460;13.528;2022-09-01T12:16:24;21.30;99.90
2124;DHT22;1068;52.460;13.528;2022-09-01T12:18:53;21.30;99.90
2124;DHT22;1068;52.460;13.528;2022-09-01T12:21:22;21.10;99.90
2124;DHT22;1068;52.460;13.528;2022-09-01T12:23:49;21.00;99.90
2124;DHT22;1068;52.460;13.528;2022-09-01T12:26:18;21.20;99.90
2124;DHT22;1068;52.460;13.528;2022-09-01T12:28:46;21.50;99.90
2124;DHT22;1068;52.460;13.528;2022-09-01T12:31:15;21.50;99.90
2124;DHT22;1068;52.460;13.528;2022-09-01T12:33:43;21.30;99.90
2124;DHT22;1068;52.460;13.528;2022-09-01T12:36:19;21.00;99.90
2124;DHT22;1068;52.460;13.528;2022-09-01T12:38:47;21.00;99.90
2124;DHT22;1068;52.460;13.528;2022-09-01T12:41:26;21.10;99.90
2124;DHT22;1068;52.460;13.528;2022-09-01T12:43:52;20.90;99.90
2124;DHT22;1068;52.460;13.528;2022-09-01T12:46:40;20.80;99.90
2124;DHT22;1068;52.460;13.528;2022-09-01T12:49:17;20.90;99.90
2124;DHT22;1068;52.460;13.528;2022-09-01T12:51:46;20.90;99.90
2124;DHT22;1068;52.460;13.528;2022-09-01T12:54:13;21.00;99.90
2124;DHT22;1068;52.460;13.528;2022-09-01T12:56:47;20.90;99.90
2124;DHT22;1068;52.460;13.528;2022-09-01T12:59:21;20.80;99.90
2124;DHT22;1068;52.460;13.528;2022-09-01T13:01:48;21.00;99.90
2124;DHT22;1068;52.460;13.528;2022-09-01T13:04:24;21.00;99.90
2124;DHT22;1068;52.460;13.528;2022-09-01T13:06:53;21.10;99.90
2124;DHT22;1068;52.460;13.528;2022-09-01T13:09:20;21.10;99.90
2124;DHT22;1068;52.460;13.528;2022-09-01T13:11:47;21.20;99.90
2124;DHT22;1068;52.460;13.528;2022-09-01T13:14:14;21.00;99.90
2124;DHT22;1068;52.460;13.528;2022-09-01T13:16:41;21.20;99.90
2124;DHT22;1068;52.460;13.528;2022-09-01T13:19:08;21.30;99.90
2124;DHT22;1068;52.460;13.528;2022-09-01T13:21:35;21.40;99.90
2124;DHT22;1068;52.460;13.528;2022-09-01T13:24:04;21.30;99.90
2124;DHT22;1068;52.460;13.528;2022-09-01T13:26:31;21.40;99.90
2124;DHT22;1068;52.460;13.528;2022-09-01T13:28:59;21.60;99.90
2124;DHT22;1068;52.460;13.528;2022-09-01T13:31:25;22.00;99.90
2124;DHT22;1068;52.460;13.528;2022-09-01T13:33:53;22.10;99.90
2124;DHT22;1068;52.460;13.528;2022-09-01T13:36:20;22.00;99.90
2124;DHT22;1068;52.460;13.528;2022-09-01T13:38:46;22.00;99.90
2124;DHT22;1068;52.460;13.528;2022-09-01T13:41:14;22.40;99.90
2124;DHT22;1068;52.460;13.528;2022-09-01T13:43:42;22.20;99.90
2124;DHT22;1068;52.460;13.528;2022-09-01T13:46:09;22.20;99.90
2124;DHT22;1068;52.460;13.528;2022-09-01T13:48:35;22.30;99.90
2124;DHT22;1068;52.460;13.528;2022-09-01T13:51:02;22.40;99.90
2124;DHT22;1068;52.460;13.528;2022-09-01T13:53:29;22.10;99.90
2124;DHT22;1068;52.460;13.528;2022-09-01T13:55:55;21.90;99.90
2124;DHT22;1068;52.460;13.528;2022-09-01T13:58:23;21.90;99.90
2124;DHT22;1068;52.460;13.528;2022-09-01T14:00:50;21.70;99.90
2124;DHT22;1068;52.460;13.528;2022-09-01T14:03:20;21.60;99.90
2124;DHT22;1068;52.460;13.528;2022-09-01T14:05:48;21.60;99.90
2124;DHT22;1068;52.460;13.528;2022-09-01T14:08:17;21.50;99.90
2124;DHT22;1068;52.460;13.528;2022-09-01T14:10:46;21.50;99.90
2124;DHT22;1068;52.460;13.528;2022-09-01T14:13:13;21.70;99.90
2124;DHT22;1068;52.460;13.528;2022-09-01T14:15:42;21.60;99.90
2124;DHT22;1068;52.460;13.528;2022-09-01T14:18:09;21.40;99.90
2124;DHT22;1068;52.460;13.528;2022-09-01T14:20:38;21.40;99.90
2124;DHT22;1068;52.460;13.528;2022-09-01T14:23:08;21.40;99.90
2124;DHT22;1068;52.460;13.528;2022-09-01T14:25:36;21.60;99.90
2124;DHT22;1068;52.460;13.528;2022-09-01T14:28:03;21.50;99.90
2124;DHT22;1068;52.460;13.528;2022-09-01T14:30:31;21.50;99.90
2124;DHT22;1068;52.460;13.528;2022-09-01T14:33:00;21.50;99.90
2124;DHT22;1068;52.460;13.528;2022-09-01T14:35:28;21.40;99.90
2124;DHT22;1068;52.460;13.528;2022-09-01T14:37:57;21.60;99.90
2124;DHT22;1068;52.460;13.528;2022-09-01T14:40:24;21.60;99.90
2124;DHT22;1068;52.460;13.528;2022-09-01T14:42:53;21.30;99.90
2124;DHT22;1068;52.460;13.528;2022-09-01T14:45:23;21.30;99.90
2124;DHT22;1068;52.460;13.528;2022-09-01T14:47:51;21.30;99.90
2124;DHT22;1068;52.460;13.528;2022-09-01T14:50:21;21.30;99.90
2124;DHT22;1068;52.460;13.528;2022-09-01T14:52:48;21.30;99.90
2124;DHT22;1068;52.460;13.528;2022-09-01T14:55:15;21.50;99.90
2124;DHT22;1068;52.460;13.528;2022-09-01T14:57:42;21.50;99.90
2124;DHT22;1068;52.460;13.528;2022-09-01T15:00:10;21.50;99.90
2124;DHT22;1068;52.460;13.528;2022-09-01T15:02:38;21.40;99.90
2124;DHT22;1068;52.460;13.528;2022-09-01T15:05:06;21.60;99.90
2124;DHT22;1068;52.460;13.528;2022-09-01T15:07:34;21.70;99.90
2124;DHT22;1068;52.460;13.528;2022-09-01T15:10:00;21.70;99.90
2124;DHT22;1068;52.460;13.528;2022-09-01T15:12:27;21.90;99.90
2124;DHT22;1068;52.460;13.528;2022-09-01T15:14:55;21.90;99.90
2124;DHT22;1068;52.460;13.528;2022-09-01T15:17:21;21.90;99.90
2124;DHT22;1068;52.460;13.528;2022-09-01T15:19:48;21.60;99.90
2124;DHT22;1068;52.460;13.528;2022-09-01T15:22:14;21.40;99.90
2124;DHT22;1068;52.460;13.528;2022-09-01T15:24:42;21.40;99.90
2124;DHT22;1068;52.460;13.528;2022-09-01T15:27:09;21.50;99.90
2124;DHT22;1068;52.460;13.528;2022-09-01T15:29:36;21.60;99.90
2124;DHT22;1068;52.460;13.528;2022-09-01T15:32:10;21.60;99.90
2124;DHT22;1068;52.460;13.528;2022-09-01T15:34:37;21.50;99.90
2124;DHT22;1068;52.460;13.528;2022-09-01T15:37:04;21.40;99.90
2124;DHT22;1068;52.460;13.528;2022-09-01T15:39:31;21.40;99.90
2124;DHT22;1068;52.460;13.528;2022-09-01T15:41:59;21.20;99.90
2124;DHT22;1068;52.460;13.528;2022-09-01T15:44:27;21.00;99.90
2124;DHT22;1068;52.460;13.528;2022-09-01T15:46:53;20.70;99.90
2124;DHT22;1068;52.460;13.528;2022-09-01T15:49:20;20.70;99.90
2124;DHT22;1068;52.460;13.528;2022-09-01T15:51:46;20.50;99.90
2124;DHT22;1068;52.460;13.528;2022-09-01T15:54:15;20.50;99.90
2124;DHT22;1068;52.460;13.528;2022-09-01T15:56:42;20.60;99.90
2124;DHT22;1068;52.460;13.528;2022-09-01T15:59:10;20.50;99.90
2124;DHT22;1068;52.460;13.528;2022-09-01T16:01:40;20.40;99.90
2124;DHT22;1068;52.460;13.528;2022-09-01T16:04:09;20.50;99.90
2124;DHT22;1068;52.460;13.528;2022-09-01T16:06:37;20.30;99.90
2124;DHT22;1068;52.460;13.528;2022-09-01T16:09:04;20.30;99.90